地図

経路データ

SID SEASON NUMBER BASIN SUBBASIN NAME ISO_TIME NATURE LAT LON WMO_WIND WMO_PRES WMO_AGENCY TRACK_TYPE DIST2LAND LANDFALL IFLAG USA_AGENCY USA_ATCF_ID USA_LAT USA_LON USA_RECORD USA_STATUS USA_WIND USA_PRES USA_SSHS USA_R34_NE USA_R34_SE USA_R34_SW USA_R34_NW USA_R50_NE USA_R50_SE USA_R50_SW USA_R50_NW USA_R64_NE USA_R64_SE USA_R64_SW USA_R64_NW USA_POCI USA_ROCI USA_RMW USA_EYE TOKYO_LAT TOKYO_LON TOKYO_GRADE TOKYO_WIND TOKYO_PRES TOKYO_R50_DIR TOKYO_R50_LONG TOKYO_R50_SHORT TOKYO_R30_DIR TOKYO_R30_LONG TOKYO_R30_SHORT TOKYO_LAND CMA_LAT CMA_LON CMA_CAT CMA_WIND CMA_PRES HKO_LAT HKO_LON HKO_CAT HKO_WIND HKO_PRES NEWDELHI_LAT NEWDELHI_LON NEWDELHI_GRADE NEWDELHI_WIND NEWDELHI_PRES NEWDELHI_CI NEWDELHI_DP NEWDELHI_POCI REUNION_LAT REUNION_LON REUNION_TYPE REUNION_WIND REUNION_PRES REUNION_TNUM REUNION_CI REUNION_RMW REUNION_R34_NE REUNION_R34_SE REUNION_R34_SW REUNION_R34_NW REUNION_R50_NE REUNION_R50_SE REUNION_R50_SW REUNION_R50_NW REUNION_R64_NE REUNION_R64_SE REUNION_R64_SW REUNION_R64_NW BOM_LAT BOM_LON BOM_TYPE BOM_WIND BOM_PRES BOM_TNUM BOM_CI BOM_RMW BOM_R34_NE BOM_R34_SE BOM_R34_SW BOM_R34_NW BOM_R50_NE BOM_R50_SE BOM_R50_SW BOM_R50_NW BOM_R64_NE BOM_R64_SE BOM_R64_SW BOM_R64_NW BOM_ROCI BOM_POCI BOM_EYE BOM_POS_METHOD BOM_PRES_METHOD NADI_LAT NADI_LON NADI_CAT NADI_WIND NADI_PRES WELLINGTON_LAT WELLINGTON_LON WELLINGTON_WIND WELLINGTON_PRES DS824_LAT DS824_LON DS824_STAGE DS824_WIND DS824_PRES TD9636_LAT TD9636_LON TD9636_STAGE TD9636_WIND TD9636_PRES TD9635_LAT TD9635_LON TD9635_WIND TD9635_PRES TD9635_ROCI NEUMANN_LAT NEUMANN_LON NEUMANN_CLASS NEUMANN_WIND NEUMANN_PRES MLC_LAT MLC_LON MLC_CLASS MLC_WIND MLC_PRES USA_GUST BOM_GUST BOM_GUST_PER REUNION_GUST REUNION_GUST_PER USA_SEAHGT USA_SEARAD_NE USA_SEARAD_SE USA_SEARAD_SW USA_SEARAD_NW STORM_SPEED STORM_DIR
1911200N16149 1911 43 WP MM NOT_NAMED 1911-07-19 09:00:00 NR 15.7000 149.000 main 2001 2000 __________O___ -1 15.7000 149.000 4 21 292
1911200N16149 1911 43 WP MM NOT_NAMED 1911-07-19 12:00:00 NR 16.0786 148.004 main 2039 2039 __________P___ -1 16.0786 148.004 4 20 292
1911200N16149 1911 43 WP MM NOT_NAMED 1911-07-19 15:00:00 NR 16.4335 147.065 main 2072 2072 __________P___ -1 16.4335 147.065 4 18 292
1911200N16149 1911 43 WP MM NOT_NAMED 1911-07-19 18:00:00 NR 16.7465 146.243 main 2106 2077 __________P___ -1 16.7465 146.243 4 15 292
1911200N16149 1911 43 WP MM NOT_NAMED 1911-07-19 21:00:00 NR 17.0000 145.600 main 2077 2038 __________O___ -1 17.0000 145.600 4 11 293
1911200N16149 1911 43 WP MM NOT_NAMED 1911-07-20 00:00:00 NR 17.1855 145.172 main 2038 2014 __________P___ -1 17.1855 145.172 4 8 296
1911200N16149 1911 43 WP MM NOT_NAMED 1911-07-20 03:00:00 NR 17.3267 144.893 main 2014 1995 __________P___ -1 17.3267 144.893 4 6 299
1911200N16149 1911 43 WP MM NOT_NAMED 1911-07-20 06:00:00 NR 17.4547 144.666 main 1985 1962 __________P___ -1 17.4547 144.666 4 5 300
1911200N16149 1911 43 WP MM NOT_NAMED 1911-07-20 09:00:00 NR 17.6000 144.400 main 1962 1920 __________O___ -1 17.6000 144.400 4 8 297
1911200N16149 1911 43 WP MM NOT_NAMED 1911-07-20 12:00:00 NR 17.8166 143.910 main 1920 1879 __________P___ -1 17.8166 143.910 4 11 295
1911200N16149 1911 43 WP MM NOT_NAMED 1911-07-20 15:00:00 NR 18.0514 143.371 main 1869 1828 __________P___ -1 18.0514 143.371 4 11 295
1911200N16149 1911 43 WP MM NOT_NAMED 1911-07-20 18:00:00 NR 18.2854 142.847 main 1824 1788 __________P___ -1 18.2854 142.847 4 10 296
1911200N16149 1911 43 WP MM NOT_NAMED 1911-07-20 21:00:00 NR 18.5000 142.400 main 1788 1760 __________O___ -1 18.5000 142.400 4 8 299
1911200N16149 1911 43 WP MM NOT_NAMED 1911-07-21 00:00:00 NR 18.6624 142.141 main 1757 1743 __________P___ -1 18.6624 142.141 4 5 306
1911200N16149 1911 43 WP MM NOT_NAMED 1911-07-21 03:00:00 NR 18.8061 141.961 main 1743 1725 __________P___ -1 18.8061 141.961 4 4 311
1911200N16149 1911 43 WP MM NOT_NAMED 1911-07-21 06:00:00 NR 18.9469 141.801 main 1725 1697 __________P___ -1 18.9469 141.801 4 5 311
1911200N16149 1911 43 WP MM NOT_NAMED 1911-07-21 09:00:00 NR 19.1000 141.600 main 1697 1666 __________O___ -1 19.1000 141.600 4 6 305
1911200N16149 1911 43 WP MM NOT_NAMED 1911-07-21 12:00:00 NR 19.2938 141.284 main 1666 1632 __________P___ -1 19.2938 141.284 4 8 302
1911200N16149 1911 43 WP MM NOT_NAMED 1911-07-21 15:00:00 NR 19.5000 140.918 main 1632 1592 __________P___ -1 19.5000 140.918 4 8 300
1911200N16149 1911 43 WP MM NOT_NAMED 1911-07-21 18:00:00 NR 19.7062 140.518 main 1592 1550 __________P___ -1 19.7062 140.518 4 9 297
1911200N16149 1911 43 WP MM NOT_NAMED 1911-07-21 21:00:00 NR 19.9000 140.100 main 1550 1519 __________O___ -1 19.9000 140.100 4 8 293
1911200N16149 1911 43 WP MM NOT_NAMED 1911-07-22 00:00:00 NR 20.0313 139.712 main 1519 1488 __________P___ -1 20.0313 139.712 4 8 289
1911200N16149 1911 43 WP MM NOT_NAMED 1911-07-22 03:00:00 NR 20.1541 139.308 main 1478 1447 __________P___ -1 20.1541 139.308 4 8 289
1911200N16149 1911 43 WP MM NOT_NAMED 1911-07-22 06:00:00 NR 20.2999 138.875 main 1447 1402 __________P___ -1 20.2999 138.875 4 9 292
1911200N16149 1911 43 WP MM NOT_NAMED 1911-07-22 09:00:00 NR 20.5000 138.400 main 1402 1346 __________O___ -1 20.5000 138.400 4 10 297
1911200N16149 1911 43 WP MM NOT_NAMED 1911-07-22 12:00:00 NR 20.7801 137.880 main 1346 1286 __________P___ -1 20.7801 137.880 4 12 301
1911200N16149 1911 43 WP MM NOT_NAMED 1911-07-22 15:00:00 NR 21.1171 137.317 main 1286 1222 __________P___ -1 21.1171 137.317 4 13 303
1911200N16149 1911 43 WP MM NOT_NAMED 1911-07-22 18:00:00 NR 21.4956 136.720 main 1217 1149 __________P___ -1 21.4956 136.720 4 14 305
1911200N16149 1911 43 WP MM NOT_NAMED 1911-07-22 21:00:00 NR 21.9000 136.100 main 1149 1092 __________O___ -1 21.9000 136.100 4 14 303
1911200N16149 1911 43 WP MM NOT_NAMED 1911-07-23 00:00:00 NR 22.2468 135.453 main 1092 1022 __________P___ -1 22.2468 135.453 4 14 301
1911200N16149 1911 43 WP MM NOT_NAMED 1911-07-23 03:00:00 NR 22.6229 134.789 main 1022 958 __________P___ -1 22.6229 134.789 4 15 304
1911200N16149 1911 43 WP MM NOT_NAMED 1911-07-23 06:00:00 NR 23.0624 134.131 main 944 871 __________P___ -1 23.0624 134.131 4 15 309
1911200N16149 1911 43 WP MM NOT_NAMED 1911-07-23 09:00:00 NR 23.6000 133.500 main 871 778 __________O___ -1 23.6000 133.500 4 17 316
1911200N16149 1911 43 WP MM NOT_NAMED 1911-07-23 12:00:00 NR 24.3034 132.817 main 776 674 __________P___ -1 24.3034 132.817 4 19 321
1911200N16149 1911 43 WP MM NOT_NAMED 1911-07-23 15:00:00 NR 25.0985 132.175 main 674 577 __________P___ -1 25.0985 132.175 4 19 327
1911200N16149 1911 43 WP MM NOT_NAMED 1911-07-23 18:00:00 NR 25.9192 131.645 main 576 483 __________P___ -1 25.9192 131.645 4 18 334
1911200N16149 1911 43 WP MM NOT_NAMED 1911-07-23 21:00:00 NR 26.7000 131.300 main 483 415 __________O___ -1 26.7000 131.300 4 15 344
1911200N16149 1911 43 WP MM NOT_NAMED 1911-07-24 00:00:00 NR 27.3686 131.174 main 404 338 __________P___ -1 27.3686 131.174 4 13 358
1911200N16149 1911 43 WP MM NOT_NAMED 1911-07-24 03:00:00 NR 27.9875 131.246 main 338 287 __________P___ -1 27.9875 131.246 4 12 12
1911200N16149 1911 43 WP MM NOT_NAMED 1911-07-24 06:00:00 NR 28.5628 131.470 main 278 236 __________P___ -1 28.5628 131.470 4 12 24
1911200N16149 1911 43 WP MM NOT_NAMED 1911-07-24 09:00:00 NR 29.1000 131.800 main 236 205 __________O___ -1 29.1000 131.800 4 12 28
1911200N16149 1911 43 WP MM NOT_NAMED 1911-07-24 12:00:00 NR 29.6312 132.132 main 205 179 __________P___ -1 29.6312 132.132 4 12 33
1911200N16149 1911 43 WP MM NOT_NAMED 1911-07-24 15:00:00 NR 30.1248 132.557 main 184 173 __________P___ -1 30.1248 132.557 4 12 40
1911200N16149 1911 43 WP MM NOT_NAMED 1911-07-24 18:00:00 NR 30.5809 133.054 main 184 179 __________P___ -1 30.5809 133.054 4 13 46
1911200N16149 1911 43 WP MM NOT_NAMED 1911-07-24 21:00:00 NR 31.0000 133.600 main 197 182 __________O___ -1 31.0000 133.600 4 13 51
1911200N16149 1911 43 WP MM NOT_NAMED 1911-07-25 00:00:00 NR 31.3586 134.195 main 183 176 __________P___ -1 31.3586 134.195 4 13 57
1911200N16149 1911 43 WP MM NOT_NAMED 1911-07-25 03:00:00 NR 31.6867 134.824 main 176 160 __________P___ -1 31.6867 134.824 4 13 58
1911200N16149 1911 43 WP MM NOT_NAMED 1911-07-25 06:00:00 NR 32.0212 135.442 main 160 111 __________P___ -1 32.0212 135.442 4 12 54
1911200N16149 1911 43 WP MM NOT_NAMED 1911-07-25 09:00:00 NR 32.4000 136.000 main 113 78 __________O___ -1 32.4000 136.000 4 12 43
1911200N16149 1911 43 WP MM NOT_NAMED 1911-07-25 12:00:00 NR 32.8971 136.425 main 78 71 __________P___ -1 32.8971 136.425 4 12 33
1911200N16149 1911 43 WP MM NOT_NAMED 1911-07-25 15:00:00 NR 33.4400 136.789 main 77 38 __________P___ -1 33.4400 136.789 4 12 28
1911200N16149 1911 43 WP MM NOT_NAMED 1911-07-25 18:00:00 NR 33.9880 137.134 main 38 22 __________P___ -1 33.9880 137.134 4 12 29
1911200N16149 1911 43 WP MM NOT_NAMED 1911-07-25 21:00:00 NR 34.5000 137.500 main 22 0 __________O___ -1 34.5000 137.500 4 11 36
1911200N16149 1911 43 WP MM NOT_NAMED 1911-07-26 00:00:00 NR 34.9142 137.956 main 0 0 __________P___ -1 34.9142 137.956 4 11 44
1911200N16149 1911 43 WP MM NOT_NAMED 1911-07-26 03:00:00 NR 35.2877 138.437 main 0 0 __________P___ -1 35.2877 138.437 4 11 47
1911200N16149 1911 43 WP MM NOT_NAMED 1911-07-26 06:00:00 NR 35.6423 138.925 main 0 0 __________P___ -1 35.6423 138.925 4 11 48
1911200N16149 1911 43 WP MM NOT_NAMED 1911-07-26 09:00:00 NR 36.0000 139.400 main 0 0 __________O___ -1 36.0000 139.400 4 11 44
1911200N16149 1911 43 WP MM NOT_NAMED 1911-07-26 12:00:00 NR 36.4086 139.852 main 0 0 __________P___ -1 36.4086 139.852 4 11 41
1911200N16149 1911 43 WP MM NOT_NAMED 1911-07-26 15:00:00 NR 36.8220 140.288 main 0 0 __________P___ -1 36.8220 140.288 4 11 40
1911200N16149 1911 43 WP MM NOT_NAMED 1911-07-26 18:00:00 NR 37.2244 140.705 main 0 0 __________P___ -1 37.2244 140.705 4 10 40
1911200N16149 1911 43 WP MM NOT_NAMED 1911-07-26 21:00:00 NR 37.6000 141.100 main 14 14 __________O___ -1 37.6000 141.100 4 9 42
1911200N16149 1911 43 WP MM NOT_NAMED 1911-07-27 00:00:00 NR 37.9243 141.490 main 44 28 __________P___ -1 37.9243 141.490 4 9 44
1911200N16149 1911 43 WP MM NOT_NAMED 1911-07-27 03:00:00 NR 38.2221 141.855 main 36 34 __________P___ -1 38.2221 141.855 4 8 43
1911200N16149 1911 43 WP MM NOT_NAMED 1911-07-27 06:00:00 NR 38.5088 142.192 main 56 56 __________P___ -1 38.5088 142.192 4 8 41
1911200N16149 1911 43 WP MM NOT_NAMED 1911-07-27 09:00:00 NR 38.8000 142.500 main 64 61 __________O___ -1 38.8000 142.500 4 5 34
1911200N16149 1911 43 WP MM NOT_NAMED 1911-07-27 12:00:00 NR 38.9595 142.582 main 64 61 __________P___ -1 38.9595 142.582 4 4 20
1911200N16149 1911 43 WP MM NOT_NAMED 1911-07-27 15:00:00 NR 39.1509 142.664 main 61 56 __________P___ -1 39.1509 142.664 4 6 26
1911200N16149 1911 43 WP MM NOT_NAMED 1911-07-27 18:00:00 NR 39.4922 142.912 main 68 68 __________P___ -1 39.4922 142.912 4 11 34
1911200N16149 1911 43 WP MM NOT_NAMED 1911-07-27 21:00:00 NR 40.1000 143.500 main 131 131 __________O___ -1 40.1000 143.500 4 21 41
1911200N16149 1911 43 WP MM NOT_NAMED 1911-07-28 00:00:00 NR 41.0837 144.691 main 153 121 __________P___ -1 41.0837 144.691 4 30 43
1911200N16149 1911 43 WP MM NOT_NAMED 1911-07-28 03:00:00 NR 42.3175 146.277 main 119 112 __________P___ -1 42.3175 146.277 4 36 44
1911200N16149 1911 43 WP MM NOT_NAMED 1911-07-28 06:00:00 NR 43.6901 148.105 main 122 68 __________P___ -1 43.6901 148.105 4 39 44
1911200N16149 1911 43 WP MM NOT_NAMED 1911-07-28 09:00:00 NR 45.1000 150.000 main 60 50 __________O___ -1 45.1000 150.000 4 38 43
1911200N16149 1911 43 WP MM NOT_NAMED 1911-07-28 12:00:00 NR 46.4752 151.811 main 115 115 __________P___ -1 46.4752 151.811 4 36 42
1911200N16149 1911 43 WP MM NOT_NAMED 1911-07-28 15:00:00 NR 47.8123 153.545 main 280 111 __________P___ -1 47.8123 153.545 4 35 41
1911200N16149 1911 43 WP MM NOT_NAMED 1911-07-28 18:00:00 NR 49.1196 155.256 main 100 41 __________P___ -1 49.1196 155.256 4 34 41
1911200N16149 1911 43 WP MM NOT_NAMED 1911-07-28 21:00:00 NR 50.4000 157.000 main 57 __________O___ -1 50.4000 157.000 4 34 41

デジタル台風データ・検索

IBTrACS Databaseについて

本データベースは、米国NOAAが公開する1842年以降の世界の熱帯低気圧のベストトラックデータアーカイブInternational Best Track Archive for Climate Stewardship (IBTrACS)を、ウェブで閲覧しやすい形式に変換したものです。

最終更新日:2021-10-08